Terminal Aerodrome Forecast
Issued by NWS

Home | Current Version | Previous Version | Graphics & Text | Print | Product List | Glossary On
Versions: 1 2 3 4 5 6 7 8 9 10 11 12 13 14 15 16 17 18 19
000
FTUS43 KABR 282300
TAFATY
TAF
KATY 282327Z 2900/2924 34015G23KT P6SM OVC010
     FM290200 34024G35KT P6SM OVC006
     FM291600 33015G24KT P6SM OVC012
     FM292000 36011KT P6SM BKN025=

USA.gov is the U.S. government's official web portal to all federal, state and local government web resources and services.